createdAt,value
2019-03-27T00:02:10.268Z,6.25
2019-03-27T00:04:42.803Z,6.26
2019-03-27T00:07:15.315Z,6.30
2019-03-27T00:09:47.833Z,6.34
2019-03-27T00:12:20.336Z,6.33
2019-03-27T00:14:52.854Z,6.43
2019-03-27T00:17:25.367Z,6.39
2019-03-27T00:19:57.929Z,6.40
2019-03-27T00:22:30.424Z,6.36
2019-03-27T00:25:02.995Z,6.27
2019-03-27T00:27:35.494Z,6.26
2019-03-27T00:30:08.809Z,6.23
2019-03-27T00:32:41.306Z,6.16
2019-03-27T00:35:13.859Z,6.16
2019-03-27T00:37:46.345Z,6.06
2019-03-27T00:40:18.853Z,6.15
2019-03-27T00:42:51.343Z,6.18
2019-03-27T00:45:26.832Z,6.13
2019-03-27T00:47:58.240Z,6.15
2019-03-27T00:50:30.747Z,6.13
2019-03-27T00:53:03.357Z,6.12
2019-03-27T00:55:35.890Z,6.06
2019-03-27T00:58:08.399Z,5.98
2019-03-27T01:01:13.680Z,5.94
2019-03-27T01:03:46.152Z,5.87
2019-03-27T01:06:18.665Z,5.90
2019-03-27T01:08:51.185Z,5.91
2019-03-27T01:11:23.699Z,5.90
2019-03-27T01:13:56.186Z,5.94
2019-03-27T01:16:28.706Z,5.97
2019-03-27T01:19:01.237Z,5.98
2019-03-27T01:21:33.767Z,6.02
2019-03-27T01:24:06.306Z,6.08
2019-03-27T01:26:38.799Z,6.03
2019-03-27T01:29:11.299Z,6.05
2019-03-27T01:31:43.809Z,6.05
2019-03-27T01:34:16.317Z,6.07
2019-03-27T01:36:48.848Z,6.12
2019-03-27T01:39:21.407Z,6.12
2019-03-27T01:41:53.931Z,6.11
2019-03-27T01:44:26.422Z,6.05
2019-03-27T01:46:58.939Z,6.05
2019-03-27T01:49:31.415Z,6.05
2019-03-27T01:52:04.047Z,6.05
2019-03-27T01:54:36.525Z,6.06
2019-03-27T01:57:09.041Z,6.03
2019-03-27T01:59:41.510Z,5.97
2019-03-27T02:02:14.038Z,5.96
2019-03-27T02:04:46.564Z,5.98
2019-03-27T02:07:19.101Z,6.01
2019-03-27T02:09:51.606Z,5.99
2019-03-27T02:12:24.161Z,5.91
2019-03-27T02:14:56.723Z,5.90
2019-03-27T02:17:29.236Z,5.93
2019-03-27T02:20:01.745Z,5.91
2019-03-27T02:22:34.224Z,5.88
2019-03-27T02:25:06.854Z,5.91
2019-03-27T02:27:39.337Z,5.88
2019-03-27T02:30:11.884Z,5.91
2019-03-27T02:32:44.362Z,5.90
2019-03-27T02:35:16.862Z,5.90
2019-03-27T02:37:49.332Z,5.94
2019-03-27T02:40:21.886Z,5.96
2019-03-27T02:42:54.442Z,5.99
2019-03-27T02:45:26.974Z,6.02
2019-03-27T02:47:59.439Z,6.05
2019-03-27T02:50:31.948Z,6.06
2019-03-27T02:53:04.481Z,6.11
2019-03-27T02:55:36.974Z,6.11
2019-03-27T02:58:09.456Z,6.08
2019-03-27T03:00:41.943Z,6.11
2019-03-27T03:03:14.529Z,6.13
2019-03-27T03:05:47.053Z,6.11
2019-03-27T03:08:19.546Z,6.09
2019-03-27T03:10:52.040Z,6.11
2019-03-27T03:13:24.518Z,6.11
2019-03-27T03:15:57.018Z,6.13
2019-03-27T03:18:29.533Z,6.14
2019-03-27T03:21:02.041Z,6.11
2019-03-27T03:23:34.680Z,6.10
2019-03-27T03:26:07.160Z,6.09
2019-03-27T03:28:39.648Z,6.07
2019-03-27T03:31:12.138Z,6.04
2019-03-27T03:33:44.616Z,5.99
2019-03-27T03:36:17.124Z,5.94
2019-03-27T03:38:49.614Z,5.98
2019-03-27T03:41:22.187Z,6.00
2019-03-27T03:43:54.658Z,6.01
2019-03-27T03:46:27.179Z,6.00
2019-03-27T03:48:59.645Z,5.95
2019-03-27T03:51:32.185Z,5.93
2019-03-27T03:54:05.028Z,5.92
2019-03-27T03:56:39.535Z,5.87
2019-03-27T03:59:12.706Z,5.93
2019-03-27T04:01:45.205Z,5.83
2019-03-27T04:04:18.388Z,5.84
2019-03-27T04:06:50.897Z,5.86
2019-03-27T04:09:23.387Z,5.91
2019-03-27T04:11:55.907Z,5.95
2019-03-27T04:14:28.479Z,5.93
2019-03-27T04:17:16.112Z,5.87
2019-03-27T04:19:35.403Z,5.87
2019-03-27T04:22:07.927Z,5.82
2019-03-27T04:24:40.405Z,5.77
2019-03-27T04:27:12.903Z,5.73
2019-03-27T04:29:45.402Z,5.75
2019-03-27T04:32:17.931Z,5.80
2019-03-27T04:34:50.408Z,5.78
2019-03-27T04:37:22.934Z,5.73
2019-03-27T04:39:55.398Z,5.67
2019-03-27T04:42:27.964Z,5.62
2019-03-27T04:45:00.477Z,5.63
2019-03-27T04:47:32.990Z,5.68
2019-03-27T04:50:08.643Z,5.68
2019-03-27T04:52:41.208Z,5.65
2019-03-27T04:55:13.702Z,5.67
2019-03-27T04:57:46.183Z,5.71
2019-03-27T05:00:18.799Z,5.69
2019-03-27T05:02:51.254Z,5.69
2019-03-27T05:05:23.773Z,5.65
2019-03-27T05:07:56.278Z,5.59
2019-03-27T05:10:28.802Z,5.55
2019-03-27T05:13:01.289Z,5.55
2019-03-27T05:15:33.811Z,5.61
2019-03-27T05:18:06.318Z,5.64
2019-03-27T05:20:38.894Z,5.58
2019-03-27T05:23:11.401Z,5.64
2019-03-27T05:25:43.938Z,5.67
2019-03-27T05:28:16.428Z,5.67
2019-03-27T05:30:48.958Z,5.68
2019-03-27T05:33:21.449Z,5.67
2019-03-27T05:35:53.998Z,5.65
2019-03-27T05:38:26.495Z,5.62
2019-03-27T05:40:59.020Z,5.60
2019-03-27T05:43:31.533Z,5.59
2019-03-27T05:46:04.040Z,5.63
2019-03-27T05:48:36.537Z,5.57
2019-03-27T05:51:09.065Z,5.55
2019-03-27T05:53:41.624Z,5.60
2019-03-27T05:56:14.155Z,5.61
2019-03-27T05:58:46.650Z,5.66
2019-03-27T06:01:19.158Z,5.75
2019-03-27T06:03:51.761Z,5.82
2019-03-27T06:06:24.326Z,5.84
2019-03-27T06:08:56.813Z,5.85
2019-03-27T06:18:53.716Z,5.84
2019-03-27T06:21:26.217Z,5.85
2019-03-27T06:23:58.698Z,5.82
2019-03-27T06:26:31.204Z,5.78
2019-03-27T06:29:03.691Z,5.75
2019-03-27T06:31:36.207Z,5.79
2019-03-27T06:34:08.701Z,5.85
2019-03-27T06:36:41.229Z,5.82
2019-03-27T06:39:13.712Z,5.82
2019-03-27T06:41:46.213Z,5.89
2019-03-27T06:44:18.738Z,5.96
2019-03-27T06:46:51.274Z,5.98
2019-03-27T06:49:23.803Z,6.03
2019-03-27T06:51:56.305Z,5.98
2019-03-27T06:54:28.834Z,5.97
2019-03-27T06:57:01.469Z,6.14
2019-03-27T06:59:33.955Z,6.27
2019-03-27T07:02:06.491Z,6.41
2019-03-27T07:04:38.995Z,6.50
2019-03-27T07:07:11.566Z,6.62
2019-03-27T07:09:44.934Z,6.63
2019-03-27T07:12:21.452Z,6.70
2019-03-27T07:14:51.879Z,6.73
2019-03-27T07:17:24.346Z,6.75
2019-03-27T07:19:56.858Z,6.83
2019-03-27T07:22:29.421Z,6.86
2019-03-27T07:25:01.936Z,6.81
2019-03-27T07:27:34.457Z,6.83
2019-03-27T07:30:07.160Z,6.67
2019-03-27T07:32:39.637Z,6.75
2019-03-27T07:35:12.171Z,6.75
2019-03-27T07:37:44.630Z,6.79
2019-03-27T07:40:17.170Z,6.89
2019-03-27T07:42:49.645Z,6.91
2019-03-27T07:45:22.137Z,7.04
2019-03-27T07:47:54.662Z,7.17
2019-03-27T07:50:27.190Z,7.33
2019-03-27T07:52:59.688Z,7.41
2019-03-27T07:55:32.214Z,7.82
2019-03-27T07:58:04.722Z,7.87
2019-03-27T08:00:37.239Z,7.93
2019-03-27T08:03:09.759Z,7.88
2019-03-27T08:05:42.305Z,7.87
2019-03-27T08:08:14.815Z,8.08
2019-03-27T08:10:47.374Z,8.20
2019-03-27T08:13:19.917Z,8.19
2019-03-27T08:15:52.445Z,8.27
2019-03-27T08:18:24.962Z,8.44
2019-03-27T08:20:57.478Z,8.42
2019-03-27T08:23:29.969Z,8.55
2019-03-27T08:26:02.924Z,8.59
2019-03-27T08:28:35.400Z,8.66
2019-03-27T08:31:08.042Z,8.89
2019-03-27T08:33:40.536Z,8.83
2019-03-27T08:36:13.038Z,8.93
2019-03-27T08:38:45.544Z,9.06
2019-03-27T08:41:18.055Z,9.26
2019-03-27T08:43:50.543Z,9.73
2019-03-27T08:46:23.077Z,9.86
2019-03-27T08:48:55.575Z,9.88
2019-03-27T08:51:28.102Z,10.03
2019-03-27T08:54:00.635Z,10.09
2019-03-27T08:56:33.165Z,10.12
2019-03-27T08:59:05.684Z,10.13
2019-03-27T09:01:38.198Z,10.06
2019-03-27T09:04:10.700Z,10.22
2019-03-27T09:06:43.217Z,10.17
2019-03-27T09:09:15.700Z,10.05
2019-03-27T09:11:48.239Z,10.03
2019-03-27T09:14:20.741Z,10.05
2019-03-27T09:16:53.309Z,9.95
2019-03-27T09:19:35.710Z,10.26
2019-03-27T09:22:00.237Z,10.29
2019-03-27T09:24:32.727Z,10.47
2019-03-27T09:27:05.310Z,10.76
2019-03-27T09:29:37.817Z,11.01
2019-03-27T09:32:10.361Z,11.01
2019-03-27T09:34:42.840Z,11.19
2019-03-27T09:37:15.374Z,11.44
2019-03-27T09:39:47.854Z,11.57
2019-03-27T09:42:20.390Z,11.41
2019-03-27T09:44:52.929Z,11.76
2019-03-27T09:47:25.429Z,11.87
2019-03-27T09:49:57.976Z,11.89
2019-03-27T09:52:30.502Z,11.89
2019-03-27T09:55:03.326Z,11.89
2019-03-27T09:57:35.868Z,12.30
2019-03-27T10:00:08.605Z,12.31
2019-03-27T10:02:41.121Z,12.42
2019-03-27T10:05:13.647Z,12.40
2019-03-27T10:07:46.227Z,12.49
2019-03-27T10:10:18.803Z,12.49
2019-03-27T10:12:51.321Z,12.50
2019-03-27T10:15:23.839Z,12.93
2019-03-27T10:17:56.338Z,12.40
2019-03-27T10:20:28.854Z,12.49
2019-03-27T10:23:01.350Z,12.44
2019-03-27T10:25:33.898Z,12.33
2019-03-27T10:28:06.395Z,12.23
2019-03-27T10:30:38.926Z,12.09
2019-03-27T10:33:11.428Z,12.09
2019-03-27T10:35:43.942Z,12.00
2019-03-27T10:38:16.458Z,12.34
2019-03-27T10:40:48.970Z,12.53
2019-03-27T10:43:21.475Z,12.60
2019-03-27T10:45:54.014Z,12.53
2019-03-27T10:48:26.497Z,12.41
2019-03-27T10:50:59.009Z,12.40
2019-03-27T10:53:31.544Z,12.40
2019-03-27T10:56:04.049Z,12.26
2019-03-27T10:58:36.576Z,12.43
2019-03-27T11:01:09.119Z,12.53
2019-03-27T11:03:41.605Z,12.57
2019-03-27T11:06:14.202Z,12.54
2019-03-27T11:08:46.712Z,12.61
2019-03-27T11:11:19.264Z,12.84
2019-03-27T11:13:51.782Z,12.77
2019-03-27T11:16:24.335Z,12.72
2019-03-27T11:18:56.850Z,12.78
2019-03-27T11:21:29.452Z,12.35
2019-03-27T11:24:01.989Z,12.00
2019-03-27T11:26:34.512Z,12.12
2019-03-27T11:29:07.011Z,12.20
2019-03-27T11:31:39.532Z,12.26
2019-03-27T11:34:12.029Z,12.15
2019-03-27T11:36:44.544Z,12.32
2019-03-27T11:39:17.041Z,12.22
2019-03-27T11:41:49.536Z,12.32
2019-03-27T11:44:22.004Z,12.30
2019-03-27T11:46:54.536Z,12.59
2019-03-27T11:49:27.027Z,12.54
2019-03-27T11:51:59.542Z,12.69
2019-03-27T11:54:32.047Z,12.66
2019-03-27T11:57:04.637Z,12.54
2019-03-27T11:59:37.109Z,12.58
2019-03-27T12:02:09.633Z,12.56
2019-03-27T12:04:42.149Z,12.51
2019-03-27T12:07:14.714Z,12.27
2019-03-27T12:09:47.220Z,12.24
2019-03-27T12:12:19.780Z,12.14
2019-03-27T12:14:52.303Z,12.33
2019-03-27T12:17:24.837Z,12.47
2019-03-27T12:19:57.371Z,12.60
2019-03-27T12:22:29.912Z,12.55
2019-03-27T12:25:02.428Z,12.49
2019-03-27T12:27:34.946Z,12.36
2019-03-27T12:30:07.743Z,12.36
2019-03-27T12:32:40.240Z,12.40
2019-03-27T12:35:12.794Z,12.37
2019-03-27T12:37:45.297Z,12.40
2019-03-27T12:40:17.816Z,12.33
2019-03-27T12:42:50.348Z,12.51
2019-03-27T12:45:22.853Z,12.78
2019-03-27T12:47:55.344Z,13.05
2019-03-27T12:50:27.888Z,13.08
2019-03-27T12:53:00.425Z,13.15
2019-03-27T12:55:33.011Z,12.71
2019-03-27T12:58:05.507Z,12.65
2019-03-27T13:00:38.016Z,12.43
2019-03-27T13:03:10.535Z,11.97
2019-03-27T13:05:43.040Z,12.17
2019-03-27T13:08:15.523Z,12.29
2019-03-27T13:10:48.074Z,12.39
2019-03-27T13:13:20.607Z,12.58
2019-03-27T13:15:53.141Z,12.72
2019-03-27T13:18:25.650Z,12.68
2019-03-27T13:20:58.194Z,12.53
2019-03-27T13:23:30.723Z,12.63
2019-03-27T13:26:03.230Z,12.65
2019-03-27T13:28:48.210Z,12.46
2019-03-27T13:31:10.194Z,12.42
2019-03-27T13:33:42.689Z,12.33
2019-03-27T13:36:15.232Z,12.37
2019-03-27T13:38:47.778Z,12.40
2019-03-27T13:41:20.327Z,12.13
2019-03-27T13:43:52.834Z,12.09
2019-03-27T13:46:25.352Z,12.15
2019-03-27T13:48:57.845Z,12.31
2019-03-27T13:51:40.494Z,12.25
2019-03-27T13:54:04.791Z,12.31
2019-03-27T13:56:37.330Z,12.39
2019-03-27T13:59:09.862Z,12.26
2019-03-27T14:01:42.401Z,12.23
2019-03-27T14:04:14.899Z,12.51
2019-03-27T14:06:47.464Z,12.33
2019-03-27T14:09:19.989Z,12.40
2019-03-27T14:11:52.523Z,12.58
2019-03-27T14:14:25.016Z,12.78
2019-03-27T14:16:57.557Z,12.73
2019-03-27T14:19:30.037Z,13.04
2019-03-27T14:22:02.650Z,13.04
2019-03-27T14:24:35.155Z,13.14
2019-03-27T14:27:07.685Z,13.25
2019-03-27T14:29:40.166Z,13.00
2019-03-27T14:32:12.722Z,13.14
2019-03-27T14:34:45.269Z,13.16
2019-03-27T14:37:17.811Z,13.13
2019-03-27T14:39:50.439Z,12.80
2019-03-27T14:42:23.075Z,12.83
2019-03-27T14:44:55.561Z,12.81
2019-03-27T14:47:28.143Z,12.60
2019-03-27T14:50:00.724Z,12.65
2019-03-27T14:52:33.241Z,12.62
2019-03-27T14:55:07.677Z,12.63
2019-03-27T14:57:40.215Z,12.55
2019-03-27T15:00:12.862Z,12.56
2019-03-27T15:02:45.385Z,12.61
2019-03-27T15:05:18.049Z,12.69
2019-03-27T15:07:50.542Z,12.49
2019-03-27T15:10:23.101Z,12.49
2019-03-27T15:12:55.626Z,12.51
2019-03-27T15:15:28.209Z,12.52
2019-03-27T15:18:00.750Z,12.56
2019-03-27T15:20:33.290Z,12.61
2019-03-27T15:23:05.783Z,12.57
2019-03-27T15:25:38.327Z,12.48
2019-03-27T15:28:10.880Z,12.54
2019-03-27T15:30:43.406Z,12.60
2019-03-27T15:33:15.970Z,12.46
2019-03-27T15:35:48.511Z,12.48
2019-03-27T15:38:21.016Z,12.57
2019-03-27T15:40:53.565Z,12.49
2019-03-27T15:43:26.103Z,12.49
2019-03-27T15:45:58.668Z,12.62
2019-03-27T15:48:31.243Z,12.56
2019-03-27T15:51:03.760Z,12.55
2019-03-27T15:53:36.286Z,12.63
2019-03-27T15:56:08.838Z,12.63
2019-03-27T15:58:41.362Z,12.67
2019-03-27T16:01:13.899Z,12.49
2019-03-27T16:03:46.403Z,12.37
2019-03-27T16:06:18.948Z,12.22
2019-03-27T16:08:51.439Z,12.36
2019-03-27T16:11:24.024Z,12.25
2019-03-27T16:13:56.550Z,12.21
2019-03-27T16:16:29.085Z,12.33
2019-03-27T16:19:01.594Z,12.35
2019-03-27T16:21:37.457Z,12.37
2019-03-27T16:24:08.740Z,12.31
2019-03-27T16:26:41.367Z,12.31
2019-03-27T16:29:13.918Z,12.41
2019-03-27T16:31:46.451Z,12.36
2019-03-27T16:34:18.982Z,12.29
2019-03-27T16:36:54.155Z,12.33
2019-03-27T16:39:25.971Z,12.31
2019-03-27T16:41:58.522Z,12.27
2019-03-27T16:44:31.054Z,12.21
2019-03-27T16:47:03.633Z,12.11
2019-03-27T16:49:36.170Z,12.09
2019-03-27T16:52:08.665Z,12.04
2019-03-27T16:54:41.278Z,12.08
2019-03-27T16:57:13.807Z,11.97
2019-03-27T16:59:46.325Z,11.86
2019-03-27T17:02:18.901Z,11.81
2019-03-27T17:04:51.496Z,11.80
2019-03-27T17:07:24.010Z,11.77
2019-03-27T17:09:56.591Z,11.73
2019-03-27T17:12:31.488Z,11.72
2019-03-27T17:15:04.227Z,11.73
2019-03-27T17:17:36.897Z,11.71
2019-03-27T17:20:10.011Z,11.66
2019-03-27T17:22:42.560Z,11.59
2019-03-27T17:25:15.130Z,11.57
2019-03-27T17:27:47.637Z,11.49
2019-03-27T17:30:20.333Z,11.45
2019-03-27T17:32:52.895Z,11.47
2019-03-27T17:35:25.505Z,11.45
2019-03-27T17:37:58.071Z,11.29
2019-03-27T17:40:30.678Z,11.20
2019-03-27T17:43:03.214Z,11.19
2019-03-27T17:45:35.810Z,11.16
2019-03-27T17:48:08.361Z,11.12
2019-03-27T17:50:40.962Z,11.03
2019-03-27T17:53:13.502Z,11.05
2019-03-27T17:55:46.134Z,10.93
2019-03-27T17:58:18.724Z,10.89
2019-03-27T18:00:52.563Z,10.81
2019-03-27T18:03:25.086Z,10.78
2019-03-27T18:05:57.618Z,10.72
2019-03-27T18:08:30.132Z,10.64
2019-03-27T18:11:03.118Z,10.42
2019-03-27T18:13:35.672Z,10.42
2019-03-27T18:16:08.257Z,10.36
2019-03-27T18:18:40.771Z,10.33
2019-03-27T18:21:13.405Z,10.25
2019-03-27T18:23:46.804Z,10.20
2019-03-27T18:26:19.381Z,10.10
2019-03-27T18:28:51.959Z,10.05
2019-03-27T18:31:24.534Z,9.95
2019-03-27T18:33:57.084Z,9.89
2019-03-27T18:36:29.670Z,9.81
2019-03-27T18:39:04.329Z,9.73
2019-03-27T18:41:36.965Z,9.66
2019-03-27T18:44:09.546Z,9.57
2019-03-27T18:46:42.164Z,9.41
2019-03-27T18:49:14.786Z,9.34
2019-03-27T18:51:47.430Z,9.22
2019-03-27T18:54:23.380Z,9.13
2019-03-27T18:56:54.657Z,8.98
2019-03-27T18:59:27.307Z,8.94
2019-03-27T19:01:59.923Z,8.86
2019-03-27T19:04:32.579Z,8.76
2019-03-27T19:07:05.182Z,8.71
2019-03-27T19:09:37.783Z,8.68
2019-03-27T19:12:10.370Z,8.55
2019-03-27T19:14:42.952Z,8.47
2019-03-27T19:17:15.506Z,8.46
2019-03-27T19:19:48.134Z,8.37
2019-03-27T19:22:20.695Z,8.27
2019-03-27T19:24:53.352Z,8.18
2019-03-27T19:27:25.912Z,8.04
2019-03-27T19:29:58.517Z,7.97
2019-03-27T19:32:31.062Z,7.97
2019-03-27T19:35:04.044Z,7.95
2019-03-27T19:37:36.659Z,7.87
2019-03-27T19:40:09.419Z,7.81
2019-03-27T19:42:42.034Z,7.78
2019-03-27T19:45:14.729Z,7.67
2019-03-27T19:47:47.290Z,7.64
2019-03-27T19:50:19.891Z,7.54
2019-03-27T19:52:52.492Z,7.51
2019-03-27T19:55:25.174Z,7.43
2019-03-27T19:57:57.727Z,7.37
2019-03-27T20:00:30.317Z,7.28
2019-03-27T20:03:02.861Z,7.24
2019-03-27T20:05:35.470Z,7.25
2019-03-27T20:08:08.154Z,7.14
2019-03-27T20:10:40.806Z,7.14
2019-03-27T20:13:13.440Z,7.06
2019-03-27T20:15:45.974Z,6.87
2019-03-27T20:18:18.543Z,6.83
2019-03-27T20:20:51.276Z,6.82
2019-03-27T20:23:23.841Z,6.77
2019-03-27T20:25:56.468Z,6.70
2019-03-27T20:28:29.059Z,6.66
2019-03-27T20:31:01.678Z,6.62
2019-03-27T20:33:34.237Z,6.58
2019-03-27T20:36:06.807Z,6.60
2019-03-27T20:38:39.524Z,6.52
2019-03-27T20:41:12.121Z,6.36
2019-03-27T20:43:44.773Z,6.30
2019-03-27T20:46:24.916Z,6.33
2019-03-27T20:48:51.917Z,6.33
2019-03-27T20:51:24.492Z,6.26
2019-03-27T20:53:57.134Z,6.09
2019-03-27T20:56:29.810Z,6.05
2019-03-27T20:59:02.366Z,6.00
2019-03-27T21:01:34.966Z,5.99
2019-03-27T21:04:07.616Z,5.97
2019-03-27T21:06:40.199Z,5.85
2019-03-27T21:09:12.722Z,5.78
2019-03-27T21:11:45.336Z,5.73
2019-03-27T21:14:17.881Z,5.55
2019-03-27T21:16:50.412Z,5.52
2019-03-27T21:19:22.991Z,5.52
2019-03-27T21:21:55.600Z,5.48
2019-03-27T21:24:28.127Z,5.38
2019-03-27T21:27:00.755Z,5.30
2019-03-27T21:29:33.305Z,5.27
2019-03-27T21:32:05.860Z,5.29
2019-03-27T21:34:38.373Z,5.15
2019-03-27T21:37:10.971Z,5.19
2019-03-27T21:39:43.604Z,5.23
2019-03-27T21:42:16.148Z,5.17
2019-03-27T21:44:48.690Z,5.12
2019-03-27T21:47:21.590Z,5.05
2019-03-27T21:49:54.173Z,4.94
2019-03-27T21:52:26.723Z,4.91
2019-03-27T21:54:59.338Z,4.91
2019-03-27T21:57:32.328Z,4.94
2019-03-27T22:00:05.403Z,4.94
2019-03-27T22:02:38.133Z,4.94
2019-03-27T22:05:10.682Z,4.88
2019-03-27T22:07:43.547Z,4.85
2019-03-27T22:10:16.176Z,4.79
2019-03-27T22:12:48.740Z,4.76
2019-03-27T22:15:21.366Z,4.73
2019-03-27T22:17:53.967Z,4.70
2019-03-27T22:20:26.630Z,4.68
2019-03-27T22:22:59.166Z,4.61
2019-03-27T22:25:36.178Z,4.60
2019-03-27T22:28:06.124Z,4.58
2019-03-27T22:30:38.707Z,4.57
2019-03-27T22:33:11.227Z,4.51
2019-03-27T22:35:43.756Z,4.46
2019-03-27T22:38:16.310Z,4.41
2019-03-27T22:40:48.863Z,4.39
2019-03-27T22:43:21.405Z,4.26
2019-03-27T22:45:53.934Z,4.18
2019-03-27T22:48:26.429Z,4.12
2019-03-27T22:50:59.013Z,4.14
2019-03-27T22:53:31.519Z,4.08
2019-03-27T22:56:04.069Z,4.01
2019-03-27T22:58:36.619Z,3.93
2019-03-27T23:01:09.345Z,3.89
2019-03-27T23:03:42.159Z,3.90
2019-03-27T23:06:14.976Z,3.86
2019-03-27T23:08:47.790Z,3.88
2019-03-27T23:11:20.571Z,3.81
2019-03-27T23:13:53.338Z,3.76
2019-03-27T23:16:26.140Z,3.77
2019-03-27T23:18:58.909Z,3.66
2019-03-27T23:21:31.714Z,3.64
2019-03-27T23:24:04.627Z,3.61
2019-03-27T23:26:37.393Z,3.68
2019-03-27T23:29:10.182Z,3.58
2019-03-27T23:31:43.063Z,3.57
2019-03-27T23:34:15.829Z,3.52
2019-03-27T23:36:48.636Z,3.63
2019-03-27T23:39:21.434Z,3.55
2019-03-27T23:41:54.228Z,3.54
2019-03-27T23:44:26.988Z,3.53
2019-03-27T23:46:59.788Z,3.55
2019-03-27T23:49:32.556Z,3.51
2019-03-27T23:52:05.358Z,3.41
2019-03-27T23:54:38.185Z,3.37
2019-03-27T23:57:10.982Z,3.33
2019-03-27T23:59:43.753Z,3.32
